sensor_id;sensor_type;location;lat;lon;timestamp;P1;durP1;ratioP1;P2;durP2;ratioP2
21589;SDS011;10957;50.968;6.828;2023-03-13T00:02:02;2.80;;;2.70;;
21589;SDS011;10957;50.968;6.828;2023-03-13T00:07:04;3.00;;;2.90;;
21589;SDS011;10957;50.968;6.828;2023-03-13T00:12:05;3.30;;;3.20;;
21589;SDS011;10957;50.968;6.828;2023-03-13T00:17:06;2.90;;;2.80;;
21589;SDS011;10957;50.968;6.828;2023-03-13T00:22:08;7.18;;;4.05;;
21589;SDS011;10957;50.968;6.828;2023-03-13T00:27:09;3.10;;;3.00;;
21589;SDS011;10957;50.968;6.828;2023-03-13T00:32:11;3.85;;;3.65;;
21589;SDS011;10957;50.968;6.828;2023-03-13T00:37:12;3.20;;;3.10;;
21589;SDS011;10957;50.968;6.828;2023-03-13T00:42:14;3.28;;;3.17;;
21589;SDS011;10957;50.968;6.828;2023-03-13T00:47:15;3.20;;;3.10;;
21589;SDS011;10957;50.968;6.828;2023-03-13T00:52:17;3.90;;;3.60;;
21589;SDS011;10957;50.968;6.828;2023-03-13T00:57:18;3.10;;;3.00;;
21589;SDS011;10957;50.968;6.828;2023-03-13T01:02:20;3.45;;;3.25;;
21589;SDS011;10957;50.968;6.828;2023-03-13T01:07:21;3.00;;;2.90;;
21589;SDS011;10957;50.968;6.828;2023-03-13T01:12:22;3.15;;;3.05;;
21589;SDS011;10957;50.968;6.828;2023-03-13T01:17:24;2.30;;;2.20;;
21589;SDS011;10957;50.968;6.828;2023-03-13T01:22:25;2.55;;;2.45;;
21589;SDS011;10957;50.968;6.828;2023-03-13T01:27:27;2.15;;;2.05;;
21589;SDS011;10957;50.968;6.828;2023-03-13T01:32:31;4.07;;;3.78;;
21589;SDS011;10957;50.968;6.828;2023-03-13T01:37:36;2.60;;;2.50;;
21589;SDS011;10957;50.968;6.828;2023-03-13T01:42:50;3.08;;;2.88;;
21589;SDS011;10957;50.968;6.828;2023-03-13T01:47:53;3.03;;;2.83;;
21589;SDS011;10957;50.968;6.828;2023-03-13T01:53:03;2.20;;;2.10;;
21589;SDS011;10957;50.968;6.828;2023-03-13T01:58:05;2.80;;;2.65;;
21589;SDS011;10957;50.968;6.828;2023-03-13T02:03:11;4.20;;;2.53;;
21589;SDS011;10957;50.968;6.828;2023-03-13T02:13:18;2.20;;;2.10;;
21589;SDS011;10957;50.968;6.828;2023-03-13T02:18:20;2.35;;;2.25;;
21589;SDS011;10957;50.968;6.828;2023-03-13T02:23:23;2.90;;;2.80;;
21589;SDS011;10957;50.968;6.828;2023-03-13T02:28:33;2.95;;;2.85;;
21589;SDS011;10957;50.968;6.828;2023-03-13T02:33:41;3.05;;;2.85;;
21589;SDS011;10957;50.968;6.828;2023-03-13T02:38:57;2.90;;;2.80;;
21589;SDS011;10957;50.968;6.828;2023-03-13T02:44:04;2.80;;;2.70;;
21589;SDS011;10957;50.968;6.828;2023-03-13T02:49:15;2.67;;;2.58;;
21589;SDS011;10957;50.968;6.828;2023-03-13T02:54:27;2.55;;;2.45;;
21589;SDS011;10957;50.968;6.828;2023-03-13T02:59:32;2.60;;;2.50;;
21589;SDS011;10957;50.968;6.828;2023-03-13T03:04:35;2.50;;;2.40;;
21589;SDS011;10957;50.968;6.828;2023-03-13T03:09:36;2.60;;;2.50;;
21589;SDS011;10957;50.968;6.828;2023-03-13T03:14:43;2.40;;;2.30;;
21589;SDS011;10957;50.968;6.828;2023-03-13T03:19:45;2.30;;;2.20;;
21589;SDS011;10957;50.968;6.828;2023-03-13T03:24:46;2.30;;;2.20;;
21589;SDS011;10957;50.968;6.828;2023-03-13T03:29:47;2.20;;;2.10;;
21589;SDS011;10957;50.968;6.828;2023-03-13T03:34:50;2.20;;;2.10;;
21589;SDS011;10957;50.968;6.828;2023-03-13T03:39:51;2.20;;;2.10;;
21589;SDS011;10957;50.968;6.828;2023-03-13T03:44:53;2.10;;;2.00;;
21589;SDS011;10957;50.968;6.828;2023-03-13T03:49:55;2.00;;;1.90;;
21589;SDS011;10957;50.968;6.828;2023-03-13T03:54:56;2.20;;;2.10;;
21589;SDS011;10957;50.968;6.828;2023-03-13T03:59:57;2.20;;;2.10;;
21589;SDS011;10957;50.968;6.828;2023-03-13T04:04:59;2.20;;;2.10;;
21589;SDS011;10957;50.968;6.828;2023-03-13T04:10:06;2.10;;;2.00;;
21589;SDS011;10957;50.968;6.828;2023-03-13T04:15:13;2.40;;;2.30;;
21589;SDS011;10957;50.968;6.828;2023-03-13T04:20:15;2.30;;;2.20;;
21589;SDS011;10957;50.968;6.828;2023-03-13T04:25:17;2.40;;;2.30;;
21589;SDS011;10957;50.968;6.828;2023-03-13T04:30:19;2.17;;;2.08;;
21589;SDS011;10957;50.968;6.828;2023-03-13T04:35:49;2.10;;;2.00;;
21589;SDS011;10957;50.968;6.828;2023-03-13T04:41:19;2.00;;;1.90;;
21589;SDS011;10957;50.968;6.828;2023-03-13T04:46:40;1.80;;;1.80;;
21589;SDS011;10957;50.968;6.828;2023-03-13T04:51:47;2.30;;;2.20;;
21589;SDS011;10957;50.968;6.828;2023-03-13T04:57:00;2.10;;;2.00;;
21589;SDS011;10957;50.968;6.828;2023-03-13T05:02:23;3.05;;;2.95;;
21589;SDS011;10957;50.968;6.828;2023-03-13T05:07:43;2.22;;;2.13;;
21589;SDS011;10957;50.968;6.828;2023-03-13T05:12:53;2.20;;;2.10;;
21589;SDS011;10957;50.968;6.828;2023-03-13T05:18:15;2.20;;;2.10;;
21589;SDS011;10957;50.968;6.828;2023-03-13T05:23:35;2.17;;;2.08;;
21589;SDS011;10957;50.968;6.828;2023-03-13T05:28:56;2.20;;;2.10;;
21589;SDS011;10957;50.968;6.828;2023-03-13T05:34:15;2.45;;;2.35;;
21589;SDS011;10957;50.968;6.828;2023-03-13T05:39:19;2.40;;;2.30;;
21589;SDS011;10957;50.968;6.828;2023-03-13T05:44:40;2.40;;;2.30;;
21589;SDS011;10957;50.968;6.828;2023-03-13T05:50:01;2.30;;;2.20;;
21589;SDS011;10957;50.968;6.828;2023-03-13T05:55:29;2.10;;;2.00;;
21589;SDS011;10957;50.968;6.828;2023-03-13T06:00:56;2.60;;;2.50;;
21589;SDS011;10957;50.968;6.828;2023-03-13T06:06:16;2.40;;;2.30;;
21589;SDS011;10957;50.968;6.828;2023-03-13T06:11:24;2.10;;;2.00;;
21589;SDS011;10957;50.968;6.828;2023-03-13T06:16:26;2.05;;;1.95;;
21589;SDS011;10957;50.968;6.828;2023-03-13T06:21:35;2.10;;;2.00;;
21589;SDS011;10957;50.968;6.828;2023-03-13T06:26:36;2.00;;;1.90;;
21589;SDS011;10957;50.968;6.828;2023-03-13T06:31:37;1.98;;;1.88;;
21589;SDS011;10957;50.968;6.828;2023-03-13T06:36:39;2.00;;;1.90;;
21589;SDS011;10957;50.968;6.828;2023-03-13T06:41:40;2.10;;;2.00;;
21589;SDS011;10957;50.968;6.828;2023-03-13T06:46:42;2.20;;;2.10;;
21589;SDS011;10957;50.968;6.828;2023-03-13T06:51:46;2.30;;;2.20;;
21589;SDS011;10957;50.968;6.828;2023-03-13T06:56:47;2.28;;;2.17;;
21589;SDS011;10957;50.968;6.828;2023-03-13T07:01:49;2.60;;;2.50;;
21589;SDS011;10957;50.968;6.828;2023-03-13T07:06:50;2.60;;;2.50;;
21589;SDS011;10957;50.968;6.828;2023-03-13T07:11:54;3.00;;;2.90;;
21589;SDS011;10957;50.968;6.828;2023-03-13T07:17:03;2.90;;;2.80;;
21589;SDS011;10957;50.968;6.828;2023-03-13T07:22:04;2.80;;;2.70;;
21589;SDS011;10957;50.968;6.828;2023-03-13T07:27:06;3.10;;;3.00;;
21589;SDS011;10957;50.968;6.828;2023-03-13T07:32:07;2.92;;;2.83;;
21589;SDS011;10957;50.968;6.828;2023-03-13T07:37:10;3.10;;;3.00;;
21589;SDS011;10957;50.968;6.828;2023-03-13T07:42:12;2.70;;;2.60;;
21589;SDS011;10957;50.968;6.828;2023-03-13T07:47:14;3.15;;;3.05;;
21589;SDS011;10957;50.968;6.828;2023-03-13T07:52:16;2.72;;;2.63;;
21589;SDS011;10957;50.968;6.828;2023-03-13T07:57:17;3.20;;;3.10;;
21589;SDS011;10957;50.968;6.828;2023-03-13T08:02:18;3.40;;;3.30;;
21589;SDS011;10957;50.968;6.828;2023-03-13T08:07:20;3.50;;;3.40;;
21589;SDS011;10957;50.968;6.828;2023-03-13T08:12:21;3.42;;;3.33;;
21589;SDS011;10957;50.968;6.828;2023-03-13T08:17:22;3.53;;;3.42;;
21589;SDS011;10957;50.968;6.828;2023-03-13T08:22:23;3.50;;;3.40;;
21589;SDS011;10957;50.968;6.828;2023-03-13T08:27:25;3.30;;;3.20;;
21589;SDS011;10957;50.968;6.828;2023-03-13T08:32:32;2.97;;;2.88;;
21589;SDS011;10957;50.968;6.828;2023-03-13T08:37:34;3.30;;;3.20;;
21589;SDS011;10957;50.968;6.828;2023-03-13T08:42:36;3.05;;;2.95;;
21589;SDS011;10957;50.968;6.828;2023-03-13T08:47:38;3.00;;;2.90;;
21589;SDS011;10957;50.968;6.828;2023-03-13T08:52:40;3.00;;;2.90;;
21589;SDS011;10957;50.968;6.828;2023-03-13T08:57:44;3.30;;;3.10;;
21589;SDS011;10957;50.968;6.828;2023-03-13T09:02:45;2.85;;;2.75;;
21589;SDS011;10957;50.968;6.828;2023-03-13T09:07:46;2.80;;;2.70;;
21589;SDS011;10957;50.968;6.828;2023-03-13T09:12:47;3.13;;;3.03;;
21589;SDS011;10957;50.968;6.828;2023-03-13T09:17:48;2.90;;;2.80;;
21589;SDS011;10957;50.968;6.828;2023-03-13T09:22:50;2.80;;;2.70;;
21589;SDS011;10957;50.968;6.828;2023-03-13T09:27:51;2.60;;;2.50;;
21589;SDS011;10957;50.968;6.828;2023-03-13T09:32:52;2.65;;;2.55;;
21589;SDS011;10957;50.968;6.828;2023-03-13T09:37:53;2.80;;;2.70;;
21589;SDS011;10957;50.968;6.828;2023-03-13T09:42:58;2.58;;;2.47;;
21589;SDS011;10957;50.968;6.828;2023-03-13T09:48:04;2.72;;;2.63;;
21589;SDS011;10957;50.968;6.828;2023-03-13T09:53:37;2.50;;;2.40;;
21589;SDS011;10957;50.968;6.828;2023-03-13T09:58:47;2.80;;;2.70;;
21589;SDS011;10957;50.968;6.828;2023-03-13T10:09:28;2.88;;;2.78;;
21589;SDS011;10957;50.968;6.828;2023-03-13T10:19:47;2.90;;;2.80;;
21589;SDS011;10957;50.968;6.828;2023-03-13T10:29:59;2.90;;;2.80;;
21589;SDS011;10957;50.968;6.828;2023-03-13T10:35:00;3.95;;;3.75;;
21589;SDS011;10957;50.968;6.828;2023-03-13T10:40:22;3.17;;;3.08;;
21589;SDS011;10957;50.968;6.828;2023-03-13T10:45:25;3.30;;;3.20;;
21589;SDS011;10957;50.968;6.828;2023-03-13T10:50:31;3.10;;;3.00;;
21589;SDS011;10957;50.968;6.828;2023-03-13T10:55:33;3.30;;;3.20;;
21589;SDS011;10957;50.968;6.828;2023-03-13T11:00:35;3.38;;;3.28;;
21589;SDS011;10957;50.968;6.828;2023-03-13T11:05:42;4.30;;;4.10;;
21589;SDS011;10957;50.968;6.828;2023-03-13T11:11:05;4.80;;;4.60;;
21589;SDS011;10957;50.968;6.828;2023-03-13T11:16:27;5.25;;;5.05;;
21589;SDS011;10957;50.968;6.828;2023-03-13T11:32:04;4.70;;;4.50;;
21589;SDS011;10957;50.968;6.828;2023-03-13T11:37:17;4.43;;;4.22;;
21589;SDS011;10957;50.968;6.828;2023-03-13T11:47:34;5.00;;;4.80;;
21589;SDS011;10957;50.968;6.828;2023-03-13T12:08:40;4.88;;;4.68;;
21589;SDS011;10957;50.968;6.828;2023-03-13T12:13:45;4.78;;;4.57;;
21589;SDS011;10957;50.968;6.828;2023-03-13T12:18:59;4.50;;;4.30;;
21589;SDS011;10957;50.968;6.828;2023-03-13T12:24:05;4.70;;;4.50;;
21589;SDS011;10957;50.968;6.828;2023-03-13T12:29:36;4.80;;;4.60;;
21589;SDS011;10957;50.968;6.828;2023-03-13T12:34:50;4.80;;;4.60;;
21589;SDS011;10957;50.968;6.828;2023-03-13T13:01:59;4.82;;;4.63;;
21589;SDS011;10957;50.968;6.828;2023-03-13T13:07:04;4.85;;;4.65;;
21589;SDS011;10957;50.968;6.828;2023-03-13T13:12:22;4.63;;;4.43;;
21589;SDS011;10957;50.968;6.828;2023-03-13T13:17:28;4.93;;;4.72;;
21589;SDS011;10957;50.968;6.828;2023-03-13T13:37:49;5.38;;;5.18;;
21589;SDS011;10957;50.968;6.828;2023-03-13T13:42:55;7.15;;;5.00;;
21589;SDS011;10957;50.968;6.828;2023-03-13T13:48:14;4.60;;;4.40;;
21589;SDS011;10957;50.968;6.828;2023-03-13T13:53:24;4.10;;;3.90;;
21589;SDS011;10957;50.968;6.828;2023-03-13T13:58:30;4.30;;;4.10;;
21589;SDS011;10957;50.968;6.828;2023-03-13T14:03:32;4.13;;;3.92;;
21589;SDS011;10957;50.968;6.828;2023-03-13T14:08:42;4.40;;;4.20;;
21589;SDS011;10957;50.968;6.828;2023-03-13T14:14:07;4.60;;;4.40;;
21589;SDS011;10957;50.968;6.828;2023-03-13T14:19:26;4.78;;;4.57;;
21589;SDS011;10957;50.968;6.828;2023-03-13T14:24:30;4.38;;;4.18;;
21589;SDS011;10957;50.968;6.828;2023-03-13T14:29:33;5.07;;;4.78;;
21589;SDS011;10957;50.968;6.828;2023-03-13T14:40:05;5.30;;;5.10;;
21589;SDS011;10957;50.968;6.828;2023-03-13T14:45:19;4.78;;;4.57;;
21589;SDS011;10957;50.968;6.828;2023-03-13T14:50:23;4.60;;;4.40;;
21589;SDS011;10957;50.968;6.828;2023-03-13T14:55:26;4.80;;;4.60;;
21589;SDS011;10957;50.968;6.828;2023-03-13T15:00:34;4.82;;;4.63;;
21589;SDS011;10957;50.968;6.828;2023-03-13T15:05:41;5.00;;;4.80;;
21589;SDS011;10957;50.968;6.828;2023-03-13T15:10:44;5.10;;;4.90;;
21589;SDS011;10957;50.968;6.828;2023-03-13T15:15:46;5.10;;;4.90;;
21589;SDS011;10957;50.968;6.828;2023-03-13T15:20:51;5.05;;;4.85;;
21589;SDS011;10957;50.968;6.828;2023-03-13T15:25:54;5.03;;;4.82;;
21589;SDS011;10957;50.968;6.828;2023-03-13T15:30:56;6.45;;;6.15;;
21589;SDS011;10957;50.968;6.828;2023-03-13T15:35:58;10.85;;;5.60;;
21589;SDS011;10957;50.968;6.828;2023-03-13T15:40:59;5.40;;;5.20;;
21589;SDS011;10957;50.968;6.828;2023-03-13T15:46:00;5.15;;;4.95;;
21589;SDS011;10957;50.968;6.828;2023-03-13T15:51:02;5.05;;;4.85;;
21589;SDS011;10957;50.968;6.828;2023-03-13T16:01:18;5.47;;;5.28;;
21589;SDS011;10957;50.968;6.828;2023-03-13T16:06:20;5.38;;;5.18;;
21589;SDS011;10957;50.968;6.828;2023-03-13T16:11:30;5.30;;;5.10;;
21589;SDS011;10957;50.968;6.828;2023-03-13T16:16:32;5.10;;;4.90;;
21589;SDS011;10957;50.968;6.828;2023-03-13T16:21:35;5.47;;;5.28;;
21589;SDS011;10957;50.968;6.828;2023-03-13T16:26:39;5.20;;;5.00;;
21589;SDS011;10957;50.968;6.828;2023-03-13T16:31:41;5.40;;;5.20;;
21589;SDS011;10957;50.968;6.828;2023-03-13T16:36:44;5.50;;;5.30;;
21589;SDS011;10957;50.968;6.828;2023-03-13T16:41:45;5.40;;;5.20;;
21589;SDS011;10957;50.968;6.828;2023-03-13T16:46:47;5.88;;;5.57;;
21589;SDS011;10957;50.968;6.828;2023-03-13T16:51:48;6.00;;;5.70;;
21589;SDS011;10957;50.968;6.828;2023-03-13T16:56:54;5.45;;;5.25;;
21589;SDS011;10957;50.968;6.828;2023-03-13T17:01:55;6.90;;;6.50;;
21589;SDS011;10957;50.968;6.828;2023-03-13T17:06:56;6.00;;;5.70;;
21589;SDS011;10957;50.968;6.828;2023-03-13T17:11:57;6.15;;;5.85;;
21589;SDS011;10957;50.968;6.828;2023-03-13T17:16:59;5.78;;;5.50;;
21589;SDS011;10957;50.968;6.828;2023-03-13T17:22:00;5.80;;;5.55;;
21589;SDS011;10957;50.968;6.828;2023-03-13T17:27:03;5.60;;;5.40;;
21589;SDS011;10957;50.968;6.828;2023-03-13T17:32:07;6.10;;;5.80;;
21589;SDS011;10957;50.968;6.828;2023-03-13T17:37:14;6.18;;;5.85;;
21589;SDS011;10957;50.968;6.828;2023-03-13T17:42:18;6.22;;;5.93;;
21589;SDS011;10957;50.968;6.828;2023-03-13T17:47:20;5.70;;;5.50;;
21589;SDS011;10957;50.968;6.828;2023-03-13T17:52:23;5.90;;;5.60;;
21589;SDS011;10957;50.968;6.828;2023-03-13T17:57:24;6.22;;;5.93;;
21589;SDS011;10957;50.968;6.828;2023-03-13T18:02:30;5.65;;;5.45;;
21589;SDS011;10957;50.968;6.828;2023-03-13T18:07:32;5.50;;;5.30;;
21589;SDS011;10957;50.968;6.828;2023-03-13T18:12:34;5.10;;;4.90;;
21589;SDS011;10957;50.968;6.828;2023-03-13T18:17:36;5.20;;;5.00;;
21589;SDS011;10957;50.968;6.828;2023-03-13T18:22:37;6.20;;;5.90;;
21589;SDS011;10957;50.968;6.828;2023-03-13T18:27:38;5.88;;;5.57;;
21589;SDS011;10957;50.968;6.828;2023-03-13T18:32:40;5.85;;;5.55;;
21589;SDS011;10957;50.968;6.828;2023-03-13T18:37:42;5.50;;;5.30;;
21589;SDS011;10957;50.968;6.828;2023-03-13T18:42:45;5.60;;;5.40;;
21589;SDS011;10957;50.968;6.828;2023-03-13T18:47:47;5.75;;;5.45;;
21589;SDS011;10957;50.968;6.828;2023-03-13T18:52:48;5.15;;;4.95;;
21589;SDS011;10957;50.968;6.828;2023-03-13T18:57:50;5.20;;;5.00;;
21589;SDS011;10957;50.968;6.828;2023-03-13T19:02:51;4.80;;;4.60;;
21589;SDS011;10957;50.968;6.828;2023-03-13T19:07:52;4.90;;;4.70;;
21589;SDS011;10957;50.968;6.828;2023-03-13T19:12:54;4.80;;;4.60;;
21589;SDS011;10957;50.968;6.828;2023-03-13T19:17:59;4.88;;;4.68;;
21589;SDS011;10957;50.968;6.828;2023-03-13T19:23:01;4.70;;;4.50;;
21589;SDS011;10957;50.968;6.828;2023-03-13T19:28:02;5.00;;;4.80;;
21589;SDS011;10957;50.968;6.828;2023-03-13T19:33:05;5.20;;;5.00;;
21589;SDS011;10957;50.968;6.828;2023-03-13T19:38:08;5.32;;;5.13;;
21589;SDS011;10957;50.968;6.828;2023-03-13T19:43:12;4.85;;;4.65;;
21589;SDS011;10957;50.968;6.828;2023-03-13T19:48:13;6.05;;;5.60;;
21589;SDS011;10957;50.968;6.828;2023-03-13T19:53:15;4.50;;;4.30;;
21589;SDS011;10957;50.968;6.828;2023-03-13T19:58:17;4.65;;;4.45;;
21589;SDS011;10957;50.968;6.828;2023-03-13T20:03:18;5.18;;;4.97;;
21589;SDS011;10957;50.968;6.828;2023-03-13T20:08:20;4.25;;;4.05;;
21589;SDS011;10957;50.968;6.828;2023-03-13T20:13:22;4.78;;;4.57;;
21589;SDS011;10957;50.968;6.828;2023-03-13T20:18:23;4.55;;;4.35;;
21589;SDS011;10957;50.968;6.828;2023-03-13T20:23:24;5.10;;;4.80;;
21589;SDS011;10957;50.968;6.828;2023-03-13T20:28:25;4.60;;;4.40;;
21589;SDS011;10957;50.968;6.828;2023-03-13T20:33:26;3.97;;;3.80;;
21589;SDS011;10957;50.968;6.828;2023-03-13T20:38:28;4.00;;;3.83;;
21589;SDS011;10957;50.968;6.828;2023-03-13T20:43:30;4.10;;;3.90;;
21589;SDS011;10957;50.968;6.828;2023-03-13T20:48:34;4.10;;;3.90;;
21589;SDS011;10957;50.968;6.828;2023-03-13T20:53:40;4.30;;;4.10;;
21589;SDS011;10957;50.968;6.828;2023-03-13T20:58:42;3.83;;;3.72;;
21589;SDS011;10957;50.968;6.828;2023-03-13T21:03:43;3.70;;;3.60;;
21589;SDS011;10957;50.968;6.828;2023-03-13T21:08:45;3.85;;;3.75;;
21589;SDS011;10957;50.968;6.828;2023-03-13T21:13:46;4.05;;;3.85;;
21589;SDS011;10957;50.968;6.828;2023-03-13T21:18:48;3.97;;;3.80;;
21589;SDS011;10957;50.968;6.828;2023-03-13T21:23:49;3.80;;;3.70;;
21589;SDS011;10957;50.968;6.828;2023-03-13T21:28:53;3.80;;;3.70;;
21589;SDS011;10957;50.968;6.828;2023-03-13T21:33:55;3.80;;;3.70;;
21589;SDS011;10957;50.968;6.828;2023-03-13T21:38:56;4.05;;;3.85;;
21589;SDS011;10957;50.968;6.828;2023-03-13T21:43:57;4.07;;;3.88;;
21589;SDS011;10957;50.968;6.828;2023-03-13T21:48:59;4.25;;;4.05;;
21589;SDS011;10957;50.968;6.828;2023-03-13T21:54:00;3.67;;;3.58;;
21589;SDS011;10957;50.968;6.828;2023-03-13T21:59:01;3.70;;;3.60;;
21589;SDS011;10957;50.968;6.828;2023-03-13T22:04:03;3.55;;;3.40;;
21589;SDS011;10957;50.968;6.828;2023-03-13T22:09:05;3.40;;;3.30;;
21589;SDS011;10957;50.968;6.828;2023-03-13T22:14:08;3.30;;;3.20;;
21589;SDS011;10957;50.968;6.828;2023-03-13T22:19:12;3.70;;;3.50;;
21589;SDS011;10957;50.968;6.828;2023-03-13T22:24:19;3.20;;;3.10;;
21589;SDS011;10957;50.968;6.828;2023-03-13T22:29:23;3.30;;;3.20;;
21589;SDS011;10957;50.968;6.828;2023-03-13T22:34:29;3.50;;;3.40;;
21589;SDS011;10957;50.968;6.828;2023-03-13T22:39:32;3.45;;;3.35;;
21589;SDS011;10957;50.968;6.828;2023-03-13T22:44:34;3.55;;;3.45;;
21589;SDS011;10957;50.968;6.828;2023-03-13T22:49:35;4.15;;;3.95;;
21589;SDS011;10957;50.968;6.828;2023-03-13T22:54:36;3.70;;;3.60;;
21589;SDS011;10957;50.968;6.828;2023-03-13T22:59:38;3.70;;;3.60;;
21589;SDS011;10957;50.968;6.828;2023-03-13T23:04:40;3.88;;;3.67;;
21589;SDS011;10957;50.968;6.828;2023-03-13T23:09:41;3.70;;;3.60;;
21589;SDS011;10957;50.968;6.828;2023-03-13T23:14:43;3.50;;;3.40;;
21589;SDS011;10957;50.968;6.828;2023-03-13T23:19:44;3.50;;;3.40;;
21589;SDS011;10957;50.968;6.828;2023-03-13T23:24:46;3.40;;;3.30;;
21589;SDS011;10957;50.968;6.828;2023-03-13T23:29:48;3.40;;;3.30;;
21589;SDS011;10957;50.968;6.828;2023-03-13T23:34:51;3.50;;;3.40;;
21589;SDS011;10957;50.968;6.828;2023-03-13T23:39:52;3.50;;;3.40;;
21589;SDS011;10957;50.968;6.828;2023-03-13T23:44:53;3.20;;;3.10;;
21589;SDS011;10957;50.968;6.828;2023-03-13T23:49:54;4.00;;;3.80;;
21589;SDS011;10957;50.968;6.828;2023-03-13T23:54:55;3.20;;;3.10;;
21589;SDS011;10957;50.968;6.828;2023-03-13T23:59:57;3.25;;;3.15;;
